Time;durP1;ratioP1;P1;durP2;ratioP2;P2;SDS_P1;SDS_P2;PMS_P1;PMS_P2;Temp;Humidity;BMP_temperature;BMP_pressure;BME280_temperature;BME280_humidity;BME280_pressure;Samples;Min_cycle;Max_cycle;Signal;HPM_P1;HPM_P2
2022/09/14 00:00:52;;;;;;;3.45;1.55;;;16.10;99.90;;;;;;5010762;28;20205;-48
2022/09/14 00:03:20;;;;;;;1.60;1.10;;;16.10;99.90;;;;;;5011579;28;20206;-47
2022/09/14 00:05:48;;;;;;;1.67;0.77;;;16.10;99.90;;;;;;5011530;28;20447;-49
2022/09/14 00:08:15;;;;;;;1.93;1.20;;;16.30;99.90;;;;;;5010480;28;20502;-47
2022/09/14 00:10:45;;;;;;;1.87;0.90;;;16.20;99.90;;;;;;5010831;28;20479;-48
2022/09/14 00:13:13;;;;;;;2.80;1.27;;;16.20;99.90;;;;;;5011333;28;20439;-47
2022/09/14 00:15:43;;;;;;;1.60;1.00;;;16.30;99.90;;;;;;5011356;28;20482;-47
2022/09/14 00:18:12;;;;;;;1.30;1.00;;;16.30;99.90;;;;;;5011105;28;20471;-48
2022/09/14 00:20:39;;;;;;;1.70;0.93;;;16.10;99.90;;;;;;5010942;28;20451;-48
2022/09/14 00:23:06;;;;;;;3.47;1.17;;;16.10;99.90;;;;;;5011333;28;20463;-48
2022/09/14 00:25:33;;;;;;;2.13;0.93;;;16.20;99.90;;;;;;5010477;28;20474;-48
2022/09/14 00:28:00;;;;;;;1.93;1.50;;;16.20;99.90;;;;;;5011233;28;20545;-47
2022/09/14 00:30:27;;;;;;;4.00;1.33;;;15.80;99.90;;;;;;5010116;28;20447;-47
2022/09/14 00:32:54;;;;;;;3.70;1.40;;;15.90;99.90;;;;;;5011216;28;21008;-48
2022/09/14 00:35:23;;;;;;;2.73;0.87;;;15.90;99.90;;;;;;5011359;28;20210;-48
2022/09/14 00:37:51;;;;;;;2.17;1.00;;;16.00;99.90;;;;;;5011102;28;20883;-48
2022/09/14 00:40:19;;;;;;;1.80;1.30;;;15.90;99.90;;;;;;5010479;28;20514;-49
2022/09/14 00:42:46;;;;;;;2.10;1.15;;;15.80;99.90;;;;;;5010592;28;20502;-47
2022/09/14 00:45:20;;;;;;;2.50;1.13;;;15.80;99.90;;;;;;5010977;28;20200;-47
2022/09/14 00:47:49;;;;;;;2.20;1.40;;;15.80;99.90;;;;;;5011088;28;20460;-47
2022/09/14 00:50:17;;;;;;;2.05;1.05;;;16.10;99.90;;;;;;5010936;28;20449;-48
2022/09/14 00:52:48;;;;;;;2.20;1.30;;;16.00;99.90;;;;;;5011129;28;20292;-49
2022/09/14 00:55:17;;;;;;;1.70;1.10;;;16.10;99.90;;;;;;5010893;28;20485;-47
2022/09/14 00:57:47;;;;;;;2.13;1.30;;;15.80;99.90;;;;;;5010937;28;20961;-48
2022/09/14 01:00:17;;;;;;;2.67;1.40;;;15.70;99.90;;;;;;5010169;28;20800;-48
2022/09/14 01:02:45;;;;;;;3.10;1.60;;;15.90;99.90;;;;;;5010877;28;20929;-49
2022/09/14 01:05:13;;;;;;;1.88;1.13;;;16.00;99.90;;;;;;5010579;28;20452;-47
2022/09/14 01:07:56;;;;;;;3.97;1.60;;;15.90;99.90;;;;;;5009653;28;20303;-43
2022/09/14 01:10:33;;;;;;;1.67;1.05;;;15.90;99.90;;;;;;5010454;28;20554;-48
2022/09/14 01:13:12;;;;;;;2.58;1.13;;;16.00;99.90;;;;;;5010586;28;20200;-47
2022/09/14 01:15:51;;;;;;;2.38;0.93;;;16.00;99.90;;;;;;5010804;28;20283;-49
2022/09/14 01:18:23;;;;;;;2.50;1.23;;;16.00;99.90;;;;;;5010584;28;20225;-48
2022/09/14 01:20:57;;;;;;;2.43;1.10;;;15.70;99.90;;;;;;5009914;28;20483;-47
2022/09/14 01:23:35;;;;;;;2.00;1.30;;;15.90;99.90;;;;;;5010850;28;20513;-48
2022/09/14 01:26:29;;;;;;;3.73;1.40;;;16.10;99.90;;;;;;5010880;28;20505;-47
2022/09/14 01:29:02;;;;;;;3.10;1.50;;;15.90;99.90;;;;;;5010283;28;20529;-47
2022/09/14 01:31:34;;;;;;;1.65;1.10;;;15.90;99.90;;;;;;5010572;28;20445;-48
2022/09/14 01:34:09;;;;;;;2.63;1.33;;;16.00;99.90;;;;;;5010652;28;20227;-47
2022/09/14 01:36:39;;;;;;;7.00;1.30;;;16.10;99.90;;;;;;5010841;28;20466;-47
2022/09/14 01:39:06;;;;;;;4.23;1.10;;;16.10;99.90;;;;;;5013414;28;20568;-47
2022/09/14 01:41:35;;;;;;;1.50;1.13;;;15.90;99.90;;;;;;5014171;28;20447;-47
2022/09/14 01:44:08;;;;;;;2.00;1.10;;;16.00;99.90;;;;;;5013507;28;20210;-48
2022/09/14 01:46:39;;;;;;;2.80;1.13;;;16.10;99.90;;;;;;5014258;28;20521;-47
2022/09/14 01:49:13;;;;;;;1.97;1.00;;;15.90;99.90;;;;;;5013067;28;20554;-47
2022/09/14 01:51:45;;;;;;;4.30;1.38;;;15.70;99.90;;;;;;5014340;28;20476;-48
2022/09/14 01:54:23;;;;;;;2.47;0.97;;;15.50;99.90;;;;;;5013855;28;20223;-47
2022/09/14 01:56:53;;;;;;;3.83;1.10;;;15.60;99.90;;;;;;5013736;28;20451;-48
2022/09/14 01:59:26;;;;;;;2.27;0.73;;;15.80;99.90;;;;;;5013042;28;20602;-47
2022/09/14 02:01:59;;;;;;;2.23;1.10;;;15.90;99.90;;;;;;5013706;28;20461;-47
2022/09/14 02:04:33;;;;;;;2.90;1.40;;;16.00;99.90;;;;;;5013558;28;20428;-47
2022/09/14 02:07:00;;;;;;;1.33;0.73;;;16.00;99.90;;;;;;5013648;28;20497;-47
2022/09/14 02:09:27;;;;;;;1.97;1.30;;;16.10;99.90;;;;;;5012147;28;20467;-47
2022/09/14 02:11:59;;;;;;;3.00;1.50;;;16.10;99.90;;;;;;5013541;28;20468;-47
2022/09/14 02:14:28;;;;;;;2.57;2.20;;;15.70;99.90;;;;;;5013795;28;20455;-47
2022/09/14 02:16:55;;;;;;;3.58;1.98;;;15.60;99.90;;;;;;5013859;28;20433;-48
2022/09/14 02:19:24;;;;;;;4.00;1.40;;;15.50;99.90;;;;;;5013134;28;20216;-47
2022/09/14 02:21:51;;;;;;;1.80;1.50;;;15.50;99.90;;;;;;5013524;28;20956;-47
2022/09/14 02:24:19;;;;;;;2.63;1.80;;;15.30;99.90;;;;;;5013324;28;20439;-47
2022/09/14 02:26:48;;;;;;;2.27;1.37;;;15.20;99.90;;;;;;5013349;28;20808;-48
2022/09/14 02:29:15;;;;;;;3.27;1.20;;;15.50;99.90;;;;;;5012375;28;20451;-49
2022/09/14 02:31:57;;;;;;;2.10;1.33;;;15.60;99.90;;;;;;5013219;28;20487;-47
2022/09/14 02:34:33;;;;;;;6.47;1.95;;;15.60;99.90;;;;;;5013320;28;20861;-47
2022/09/14 02:37:05;;;;;;;2.83;1.33;;;15.80;99.90;;;;;;5013529;28;20200;-47
2022/09/14 02:39:40;;;;;;;2.90;1.40;;;15.80;99.90;;;;;;5012358;28;20566;-47
2022/09/14 02:42:17;;;;;;;2.00;1.40;;;15.60;99.90;;;;;;5012663;28;20497;-47
2022/09/14 02:44:53;;;;;;;2.50;1.60;;;15.40;99.90;;;;;;5013271;28;20443;-47
2022/09/14 02:47:27;;;;;;;2.00;1.63;;;14.90;99.90;;;;;;5012741;28;20823;-47
2022/09/14 02:50:01;;;;;;;1.80;1.60;;;14.90;99.90;;;;;;5011525;28;20451;-48
2022/09/14 02:52:33;;;;;;;2.07;1.10;;;15.00;99.90;;;;;;5012937;28;20943;-47
2022/09/14 02:55:06;;;;;;;4.17;1.53;;;15.20;99.90;;;;;;5012831;28;20489;-47
2022/09/14 02:57:53;;;;;;;4.70;1.50;;;15.30;99.90;;;;;;5012627;28;20862;-48
2022/09/14 03:00:21;;;;;;;1.43;1.00;;;15.50;99.90;;;;;;5011656;28;20541;-47
2022/09/14 03:02:49;;;;;;;2.90;1.30;;;15.50;99.90;;;;;;5012438;28;20439;-47
2022/09/14 03:05:16;;;;;;;2.77;1.30;;;15.40;99.90;;;;;;5012542;28;20971;-48
2022/09/14 03:07:43;;;;;;;2.93;1.20;;;15.40;99.90;;;;;;5011701;28;20491;-46
2022/09/14 03:10:10;;;;;;;2.03;1.73;;;15.60;99.90;;;;;;5011874;28;20938;-47
2022/09/14 03:12:38;;;;;;;2.43;1.43;;;15.60;99.90;;;;;;5012499;28;20432;-47
2022/09/14 03:15:06;;;;;;;2.57;1.70;;;15.10;99.90;;;;;;5012035;28;20892;-47
2022/09/14 03:17:33;;;;;;;2.40;1.30;;;15.00;99.90;;;;;;5012448;28;20502;-47
2022/09/14 03:20:02;;;;;;;3.73;1.77;;;15.20;99.90;;;;;;5011700;28;20502;-48
2022/09/14 03:22:29;;;;;;;2.05;1.17;;;15.50;99.90;;;;;;5012143;28;20477;-48
2022/09/14 03:24:56;;;;;;;4.90;1.83;;;15.30;99.90;;;;;;5012405;28;20204;-47
2022/09/14 03:27:23;;;;;;;2.20;1.30;;;14.90;99.90;;;;;;5012252;28;20478;-47
2022/09/14 03:29:50;;;;;;;2.97;0.90;;;15.20;99.90;;;;;;5011491;28;20448;-45
2022/09/14 03:32:17;;;;;;;2.60;1.17;;;15.30;99.90;;;;;;5012245;28;20483;-47
2022/09/14 03:34:44;;;;;;;3.30;1.30;;;15.40;99.90;;;;;;5012270;28;20513;-48
2022/09/14 03:37:13;;;;;;;4.83;1.60;;;15.50;99.90;;;;;;5011793;28;20455;-48
2022/09/14 03:39:40;;;;;;;2.37;1.43;;;15.50;99.90;;;;;;5011209;28;20928;-48
2022/09/14 03:42:07;;;;;;;1.90;1.33;;;15.40;99.90;;;;;;5011482;28;20447;-49
2022/09/14 03:44:34;;;;;;;2.80;1.70;;;15.40;99.90;;;;;;5011776;28;20447;-48
2022/09/14 03:47:01;;;;;;;1.70;1.10;;;15.40;99.90;;;;;;5011708;28;20435;-49
2022/09/14 03:49:28;;;;;;;2.67;1.40;;;15.20;99.90;;;;;;5011171;28;20533;-48
2022/09/14 03:51:55;;;;;;;2.93;1.40;;;15.10;99.90;;;;;;5011878;28;20447;-49
2022/09/14 03:54:23;;;;;;;2.30;1.40;;;15.30;99.90;;;;;;5011950;28;20439;-48
2022/09/14 03:56:52;;;;;;;4.17;1.50;;;15.40;99.90;;;;;;5011547;28;20479;-48
2022/09/14 03:59:20;;;;;;;2.37;1.13;;;15.40;99.90;;;;;;5010392;28;20475;-48
2022/09/14 04:01:47;;;;;;;2.67;1.47;;;15.40;99.90;;;;;;5011810;28;20454;-49
2022/09/14 04:04:15;;;;;;;2.03;1.50;;;15.40;99.90;;;;;;5011693;28;20459;-48
2022/09/14 04:06:42;;;;;;;3.00;1.30;;;15.30;99.90;;;;;;5011686;28;20475;-48
2022/09/14 04:09:09;;;;;;;3.40;1.57;;;15.50;99.90;;;;;;5009959;28;20455;-48
2022/09/14 04:11:38;;;;;;;2.70;1.50;;;15.60;99.90;;;;;;5011372;28;20428;-48
2022/09/14 04:14:06;;;;;;;1.57;1.10;;;15.70;99.90;;;;;;5011362;28;20486;-48
2022/09/14 04:16:33;;;;;;;4.40;1.43;;;15.20;99.90;;;;;;5011361;28;20439;-49
2022/09/14 04:19:00;;;;;;;2.70;1.60;;;15.10;99.90;;;;;;5010544;28;20526;-49
2022/09/14 04:21:27;;;;;;;2.10;1.50;;;15.30;99.90;;;;;;5011353;28;20769;-48
2022/09/14 04:23:56;;;;;;;2.90;1.30;;;15.50;99.90;;;;;;5011194;28;20852;-48
2022/09/14 04:26:24;;;;;;;3.20;1.33;;;15.40;99.90;;;;;;5011162;28;20453;-50
2022/09/14 04:28:53;;;;;;;1.70;1.30;;;15.40;99.90;;;;;;5012100;28;20502;-48
2022/09/14 04:31:20;;;;;;;1.75;1.17;;;15.70;99.90;;;;;;5011317;28;20454;-48
2022/09/14 04:33:49;;;;;;;3.47;1.50;;;15.80;99.90;;;;;;5011092;28;20248;-48
2022/09/14 04:36:18;;;;;;;2.33;1.50;;;15.80;99.90;;;;;;5011694;28;20455;-48
2022/09/14 04:38:45;;;;;;;3.60;2.00;;;15.10;99.90;;;;;;5010612;28;20455;-48
2022/09/14 04:41:14;;;;;;;2.70;1.57;;;15.00;99.90;;;;;;5010990;28;20502;-48
2022/09/14 04:43:42;;;;;;;3.63;1.70;;;15.30;99.90;;;;;;5010670;28;20521;-48
2022/09/14 04:46:13;;;;;;;1.97;1.10;;;15.30;99.90;;;;;;5011103;28;20482;-48
2022/09/14 04:48:40;;;;;;;2.50;1.40;;;15.40;99.90;;;;;;5010517;28;20470;-48
2022/09/14 04:51:09;;;;;;;2.43;1.20;;;15.40;99.90;;;;;;5011101;28;20501;-49
2022/09/14 04:53:38;;;;;;;2.27;1.70;;;15.60;99.90;;;;;;5010861;28;20427;-50
2022/09/14 04:56:06;;;;;;;1.60;1.20;;;15.60;99.90;;;;;;5011261;28;20455;-49
2022/09/14 04:58:34;;;;;;;3.53;1.93;;;15.50;99.90;;;;;;5010805;28;20536;-49
2022/09/14 05:01:02;;;;;;;4.07;2.42;;;15.40;99.90;;;;;;5010111;28;20467;-49
2022/09/14 05:03:30;;;;;;;2.70;2.30;;;15.50;99.90;;;;;;5011151;28;20210;-48
2022/09/14 05:06:02;;;;;;;2.43;1.77;;;15.40;99.90;;;;;;5010895;28;20439;-50
2022/09/14 05:08:29;;;;;;;2.47;1.50;;;15.30;99.90;;;;;;5009796;28;20455;-49
2022/09/14 05:10:56;;;;;;;1.67;1.20;;;15.40;99.90;;;;;;5010235;28;20505;-49
2022/09/14 05:13:23;;;;;;;2.40;1.60;;;15.40;99.90;;;;;;5013873;28;20509;-49
2022/09/14 05:15:51;;;;;;;2.13;1.40;;;15.40;99.90;;;;;;5014683;28;20196;-49
2022/09/14 05:18:18;;;;;;;2.43;2.20;;;15.60;99.90;;;;;;5014593;28;20494;-51
2022/09/14 05:20:46;;;;;;;1.80;1.33;;;15.70;99.90;;;;;;5013692;28;20513;-49
2022/09/14 05:23:13;;;;;;;1.90;1.70;;;15.70;99.90;;;;;;5014357;28;20435;-49
2022/09/14 05:25:40;;;;;;;1.87;1.30;;;15.70;99.90;;;;;;5014426;28;20891;-50
2022/09/14 05:28:08;;;;;;;1.53;1.30;;;15.70;99.90;;;;;;5014390;28;20510;-50
2022/09/14 05:30:39;;;;;;;2.73;1.30;;;15.60;99.90;;;;;;5014308;28;20850;-49
2022/09/14 05:33:06;;;;;;;3.00;2.20;;;15.70;99.90;;;;;;5014336;28;20439;-48
2022/09/14 05:35:33;;;;;;;4.43;3.27;;;15.50;99.90;;;;;;5014296;28;20509;-50
2022/09/14 05:38:01;;;;;;;6.23;2.93;;;15.70;99.90;;;;;;5014397;28;20552;-48
2022/09/14 05:40:28;;;;;;;4.00;2.43;;;15.70;99.90;;;;;;5013388;28;20545;-49
2022/09/14 05:42:55;;;;;;;2.57;1.83;;;15.40;99.90;;;;;;5013765;28;20975;-51
2022/09/14 05:45:22;;;;;;;3.67;1.70;;;15.40;99.90;;;;;;5014506;28;20475;-49
2022/09/14 05:47:49;;;;;;;1.70;1.23;;;15.60;99.90;;;;;;5014378;28;20491;-48
2022/09/14 05:50:16;;;;;;;3.30;1.80;;;15.70;99.90;;;;;;5013401;28;20447;-49
2022/09/14 05:52:43;;;;;;;9.40;1.93;;;15.70;99.90;;;;;;5014012;28;20485;-50
2022/09/14 05:55:12;;;;;;;4.23;3.10;;;15.90;99.90;;;;;;5013957;28;20489;-50
2022/09/14 05:57:38;;;;;;;4.53;3.08;;;15.90;99.90;;;;;;5014035;28;20481;-49
2022/09/14 06:00:07;;;;;;;5.40;3.80;;;15.90;99.90;;;;;;5013266;28;20216;-48
2022/09/14 06:02:34;;;;;;;8.80;3.67;;;15.90;99.90;;;;;;5014235;28;20526;-49
2022/09/14 06:05:00;;;;;;;3.90;2.73;;;16.00;99.90;;;;;;5013845;28;20645;-49
2022/09/14 06:07:27;;;;;;;5.00;2.90;;;15.90;99.90;;;;;;5014612;28;20506;-49
2022/09/14 06:09:54;;;;;;;9.20;3.03;;;15.90;99.90;;;;;;5011991;28;20478;-50
2022/09/14 06:12:25;;;;;;;6.65;2.53;;;15.80;99.90;;;;;;5014106;28;20477;-50
2022/09/14 06:14:52;;;;;;;3.90;2.10;;;15.90;99.90;;;;;;5013622;28;20450;-49
2022/09/14 06:17:19;;;;;;;12.40;3.20;;;15.90;99.90;;;;;;5013636;28;20468;-49
2022/09/14 06:19:46;;;;;;;4.50;2.33;;;16.00;99.90;;;;;;5013027;28;20467;-50
2022/09/14 06:22:13;;;;;;;4.20;2.30;;;16.00;99.90;;;;;;5013341;28;20502;-49
2022/09/14 06:24:40;;;;;;;8.10;3.13;;;16.00;99.90;;;;;;5012167;28;20462;-49
2022/09/14 06:27:07;;;;;;;7.40;2.83;;;16.20;99.90;;;;;;5013325;28;20438;-48
2022/09/14 06:29:36;;;;;;;5.53;3.50;;;16.20;99.90;;;;;;5012821;28;20447;-48
2022/09/14 06:32:03;;;;;;;16.67;5.13;;;16.00;99.90;;;;;;5013477;28;20502;-49
2022/09/14 06:34:30;;;;;;;11.10;6.30;;;15.90;99.90;;;;;;5013209;28;20493;-49
2022/09/14 06:36:57;;;;;;;5.20;3.40;;;15.80;99.90;;;;;;5013198;28;20447;-50
2022/09/14 06:39:24;;;;;;;4.47;2.93;;;15.50;99.90;;;;;;5012797;28;20513;-48
2022/09/14 06:41:51;;;;;;;7.83;3.20;;;15.50;99.90;;;;;;5013321;28;20436;-49
2022/09/14 06:44:19;;;;;;;5.37;3.67;;;15.60;99.90;;;;;;5012741;28;20449;-48
2022/09/14 06:46:47;;;;;;;4.88;2.92;;;15.60;99.90;;;;;;5013163;28;20448;-49
2022/09/14 06:49:19;;;;;;;5.10;2.90;;;15.70;99.90;;;;;;5012467;28;20700;-49
2022/09/14 06:51:46;;;;;;;7.87;2.63;;;15.80;99.90;;;;;;5013434;28;20205;-49
2022/09/14 06:54:15;;;;;;;3.93;2.90;;;15.80;99.90;;;;;;5013196;28;20475;-49
2022/09/14 06:56:44;;;;;;;7.50;3.73;;;15.90;99.90;;;;;;5013123;28;20451;-49
2022/09/14 06:59:12;;;;;;;5.97;2.60;;;16.00;99.90;;;;;;5012671;28;20530;-49
2022/09/14 07:01:39;;;;;;;5.40;2.50;;;16.10;99.90;;;;;;5012846;28;20510;-49
2022/09/14 07:04:08;;;;;;;15.73;4.60;;;16.20;99.90;;;;;;5012854;28;20459;-49
2022/09/14 07:06:40;;;;;;;8.40;3.33;;;16.40;99.90;;;;;;5013131;28;20533;-49
2022/09/14 07:09:07;;;;;;;10.05;3.17;;;16.50;99.90;;;;;;5010424;28;20468;-49
2022/09/14 07:11:34;;;;;;;7.35;3.55;;;16.60;99.90;;;;;;5013087;28;20220;-49
2022/09/14 07:14:01;;;;;;;4.20;3.80;;;16.60;99.90;;;;;;5012870;28;20262;-48
2022/09/14 07:16:31;;;;;;;10.33;4.40;;;16.50;99.90;;;;;;5012443;28;20498;-48
2022/09/14 07:19:00;;;;;;;8.20;4.77;;;16.60;99.90;;;;;;5012197;28;20534;-49
2022/09/14 07:21:30;;;;;;;8.23;4.53;;;16.60;99.90;;;;;;5012392;28;20479;-49
2022/09/14 07:23:57;;;;;;;31.80;22.20;;;16.40;99.90;;;;;;5012711;28;20485;-49
2022/09/14 07:26:26;;;;;;;8.00;4.43;;;16.40;99.90;;;;;;5012429;28;20649;-49
2022/09/14 07:28:55;;;;;;;85.67;16.53;;;16.30;99.90;;;;;;5012115;28;20262;-49
2022/09/14 07:31:26;;;;;;;30.93;8.27;;;16.40;99.90;;;;;;5012359;28;20503;-49
2022/09/14 07:33:54;;;;;;;15.55;5.70;;;16.60;99.90;;;;;;5012371;28;20487;-49
2022/09/14 07:36:22;;;;;;;7.13;3.05;;;16.70;99.90;;;;;;5012182;28;20212;-50
2022/09/14 07:38:51;;;;;;;4.37;3.20;;;16.70;99.90;;;;;;5011472;28;20701;-49
2022/09/14 07:41:19;;;;;;;3.77;2.70;;;16.60;99.90;;;;;;5012109;28;20479;-49
2022/09/14 07:43:49;;;;;;;4.17;2.27;;;16.80;99.90;;;;;;5011460;28;20439;-49
2022/09/14 07:46:16;;;;;;;3.87;2.40;;;17.00;99.90;;;;;;5012044;28;20932;-49
2022/09/14 07:48:43;;;;;;;3.50;2.10;;;17.30;99.90;;;;;;5011671;28;20490;-49
2022/09/14 07:51:11;;;;;;;7.60;4.13;;;17.50;99.90;;;;;;5012127;28;20455;-49
2022/09/14 07:53:41;;;;;;;4.80;3.30;;;17.40;99.90;;;;;;5011872;28;20447;-49
2022/09/14 07:56:10;;;;;;;9.73;3.73;;;17.50;99.90;;;;;;5012127;28;20929;-49
2022/09/14 07:58:37;;;;;;;9.50;4.00;;;17.40;99.90;;;;;;5011762;28;20451;-50
2022/09/14 08:01:07;;;;;;;6.50;3.53;;;17.60;99.90;;;;;;5011698;28;20577;-48
2022/09/14 08:03:36;;;;;;;6.40;3.47;;;17.50;99.90;;;;;;5011804;28;21043;-48
2022/09/14 08:06:04;;;;;;;5.83;2.60;;;17.50;99.90;;;;;;5011812;28;20206;-49
2022/09/14 08:08:34;;;;;;;6.37;3.07;;;17.30;99.90;;;;;;5010096;28;20453;-49
2022/09/14 08:11:06;;;;;;;4.90;2.17;;;17.30;99.90;;;;;;5011254;28;20877;-49
2022/09/14 08:13:35;;;;;;;3.30;2.73;;;17.60;99.90;;;;;;5011874;28;20493;-49
2022/09/14 08:16:03;;;;;;;4.00;2.77;;;17.70;99.90;;;;;;5011719;28;20478;-49
2022/09/14 08:18:31;;;;;;;4.80;2.47;;;17.70;99.90;;;;;;5011621;28;20467;-50
2022/09/14 08:21:04;;;;;;;9.23;4.23;;;17.60;99.90;;;;;;5011083;28;20475;-49
2022/09/14 08:23:31;;;;;;;4.20;3.00;;;17.80;99.90;;;;;;5011878;28;20459;-49
2022/09/14 08:26:03;;;;;;;6.93;3.27;;;17.80;99.90;;;;;;5011366;28;20431;-50
2022/09/14 08:28:30;;;;;;;4.13;3.30;;;18.00;99.90;;;;;;5011402;28;20483;-50
2022/09/14 08:31:04;;;;;;;7.63;3.03;;;18.00;99.90;;;;;;5011292;28;20770;-49
2022/09/14 08:33:32;;;;;;;6.37;3.10;;;18.20;99.90;;;;;;5011510;28;20489;-50
2022/09/14 08:35:59;;;;;;;6.90;3.78;;;18.20;99.90;;;;;;5011922;28;20941;-49
2022/09/14 08:38:27;;;;;;;9.00;3.00;;;18.40;99.90;;;;;;5011781;28;20297;-51
2022/09/14 08:40:55;;;;;;;17.17;3.80;;;18.50;99.90;;;;;;5010886;28;20535;-49
2022/09/14 08:43:25;;;;;;;17.13;4.07;;;18.40;99.90;;;;;;5010745;28;20893;-49
2022/09/14 08:46:01;;;;;;;4.03;2.30;;;18.40;99.90;;;;;;5011481;28;20506;-49
2022/09/14 08:48:33;;;;;;;3.37;2.87;;;18.40;99.90;;;;;;5014745;28;20470;-49
2022/09/14 08:51:00;;;;;;;4.20;1.93;;;18.50;99.90;;;;;;5014933;28;20924;-50
2022/09/14 08:53:27;;;;;;;3.57;2.50;;;18.60;99.90;;;;;;5015397;28;20503;-50
2022/09/14 08:56:00;;;;;;;12.67;4.67;;;18.50;99.90;;;;;;5015193;28;20505;-49
2022/09/14 08:58:47;;;;;;;4.00;2.07;;;18.70;99.90;;;;;;5015218;28;20469;-49
2022/09/14 09:01:23;;;;;;;5.38;2.33;;;18.90;99.90;;;;;;5014974;28;20569;-49
2022/09/14 09:04:04;;;;;;;6.32;3.00;;;19.10;99.90;;;;;;5015167;28;20661;-50
2022/09/14 09:06:43;;;;;;;4.00;2.67;;;19.10;99.90;;;;;;5015167;28;20727;-49
2022/09/14 09:09:18;;;;;;;3.67;2.63;;;19.30;99.90;;;;;;5012871;28;20991;-50
2022/09/14 09:11:49;;;;;;;5.20;2.80;;;19.30;99.90;;;;;;5014826;28;20916;-49
2022/09/14 09:14:19;;;;;;;3.37;2.83;;;19.40;99.90;;;;;;5014716;28;20497;-49
2022/09/14 09:16:51;;;;;;;3.37;2.40;;;19.50;99.90;;;;;;5015010;28;20486;-50
2022/09/14 09:19:24;;;;;;;3.93;1.83;;;19.60;99.90;;;;;;5014184;28;20506;-49
2022/09/14 09:21:52;;;;;;;3.07;1.90;;;19.70;99.90;;;;;;5014513;28;20475;-50
2022/09/14 09:24:27;;;;;;;4.67;2.10;;;19.90;99.90;;;;;;5014963;28;21006;-48
2022/09/14 09:26:54;;;;;;;2.77;2.20;;;20.10;99.90;;;;;;5014704;28;20959;-50
2022/09/14 09:29:21;;;;;;;3.75;2.10;;;20.30;99.90;;;;;;5013846;28;20451;-49
2022/09/14 09:31:52;;;;;;;3.13;2.50;;;20.30;99.90;;;;;;5014912;28;20273;-49
2022/09/14 09:34:25;;;;;;;4.43;2.57;;;20.40;99.90;;;;;;5014695;28;20473;-49
2022/09/14 09:36:54;;;;;;;7.10;2.70;;;20.40;99.90;;;;;;5014394;28;20475;-49
2022/09/14 09:39:22;;;;;;;5.93;2.90;;;20.60;99.90;;;;;;5013920;28;20987;-49
2022/09/14 09:41:52;;;;;;;5.20;2.40;;;20.70;99.90;;;;;;5014493;28;20490;-49
2022/09/14 09:44:19;;;;;;;4.40;2.13;;;20.80;99.90;;;;;;5013929;28;20506;-49
2022/09/14 09:46:50;;;;;;;3.50;2.30;;;20.70;99.90;;;;;;5014493;28;20474;-51
2022/09/14 09:49:21;;;;;;;5.97;2.60;;;20.90;99.90;;;;;;5013689;28;20475;-50
2022/09/14 09:51:49;;;;;;;3.63;2.40;;;20.70;99.90;;;;;;5014617;28;21057;-50
2022/09/14 09:54:28;;;;;;;2.80;2.20;;;20.80;99.90;;;;;;5014306;28;20443;-49
2022/09/14 09:56:57;;;;;;;3.77;2.50;;;20.90;99.90;;;;;;5014260;28;20467;-49
2022/09/14 09:59:35;;;;;;;5.53;2.50;;;21.10;99.90;;;;;;5013455;28;20451;-49
2022/09/14 10:02:22;;;;;;;6.03;2.37;;;21.00;99.90;;;;;;5014176;28;20998;-49
2022/09/14 10:05:05;;;;;;;4.80;2.20;;;21.10;99.90;;;;;;5014341;28;20505;-49
2022/09/14 10:07:36;;;;;;;3.77;2.53;;;20.90;99.90;;;;;;5014023;28;20474;-49
2022/09/14 10:10:06;;;;;;;4.63;2.73;;;21.10;99.90;;;;;;5011999;28;20491;-49
2022/09/14 10:12:34;;;;;;;6.07;2.17;;;21.10;99.90;;;;;;5013954;28;20525;-49
2022/09/14 10:15:17;;;;;;;5.47;2.50;;;20.90;99.90;;;;;;5014290;28;20451;-49
2022/09/14 10:17:55;;;;;;;18.00;4.07;;;21.00;99.90;;;;;;5014428;28;20505;-49
2022/09/14 10:20:25;;;;;;;8.40;3.47;;;21.10;99.90;;;;;;5013111;28;20459;-49
2022/09/14 10:22:53;;;;;;;4.50;2.57;;;21.20;99.90;;;;;;5013517;28;20479;-51
2022/09/14 10:25:26;;;;;;;8.20;3.03;;;21.10;99.90;;;;;;5013610;28;20993;-49
2022/09/14 10:28:00;;;;;;;17.67;5.43;;;21.00;99.90;;;;;;5014649;28;21003;-49
2022/09/14 10:30:31;;;;;;;6.33;3.73;;;21.20;99.90;;;;;;5012900;28;20944;-47
2022/09/14 10:33:01;;;;;;;4.77;3.47;;;21.20;99.90;;;;;;5013331;28;20862;-49
2022/09/14 10:35:42;;;;;;;4.17;2.90;;;21.40;99.90;;;;;;5013557;28;20432;-49
2022/09/14 10:38:24;;;;;;;3.28;2.40;;;21.70;99.90;;;;;;5013049;28;20516;-49
2022/09/14 10:41:00;;;;;;;6.10;2.63;;;21.70;99.90;;;;;;5013207;28;20235;-49
2022/09/14 10:43:37;;;;;;;3.73;2.50;;;21.90;99.90;;;;;;5011150;28;20479;-49
2022/09/14 10:46:07;;;;;;;4.70;2.80;;;22.20;99.90;;;;;;5013311;28;20455;-49
2022/09/14 10:48:55;;;;;;;6.63;3.03;;;22.10;99.90;;;;;;5012992;28;20474;-51
2022/09/14 10:51:37;;;;;;;4.33;2.43;;;22.10;99.90;;;;;;5013190;28;20582;-49
2022/09/14 10:54:14;;;;;;;3.80;2.43;;;22.30;99.90;;;;;;5013186;28;20448;-50
2022/09/14 10:56:59;;;;;;;3.60;2.57;;;22.40;99.90;;;;;;5012954;28;20447;-49
2022/09/14 10:59:36;;;;;;;3.37;2.87;;;22.10;99.90;;;;;;5012148;28;20455;-49
2022/09/14 11:02:49;;;;;;;5.95;3.15;;;22.10;99.90;;;;;;5012891;28;20725;-49
2022/09/14 11:05:21;;;;;;;4.10;3.17;;;22.00;99.90;;;;;;5012329;28;20204;-49
2022/09/14 11:08:04;;;;;;;6.00;2.60;;;21.80;99.90;;;;;;5011194;28;20473;-51
2022/09/14 11:10:37;;;;;;;4.57;2.58;;;21.90;99.90;;;;;;5011603;28;20218;-51
2022/09/14 11:13:37;;;;;;;3.10;2.67;;;21.90;99.90;;;;;;5012607;28;20203;-49
2022/09/14 11:16:13;;;;;;;5.10;3.00;;;21.90;99.90;;;;;;5013085;28;20803;-50
2022/09/14 11:18:51;;;;;;;3.15;2.55;;;21.80;99.90;;;;;;5012055;28;20518;-46
2022/09/14 11:21:27;;;;;;;4.70;3.57;;;21.60;99.90;;;;;;5012205;28;20216;-49
2022/09/14 11:24:00;;;;;;;3.97;3.00;;;21.50;99.90;;;;;;5012349;28;20439;-49
2022/09/14 11:26:30;;;;;;;5.97;3.30;;;21.60;99.90;;;;;;5012327;28;20443;-50
2022/09/14 11:29:03;;;;;;;5.30;2.87;;;21.60;99.90;;;;;;5011435;28;20570;-49
2022/09/14 11:31:34;;;;;;;117.77;17.00;;;21.80;99.90;;;;;;5012242;28;20446;-49
2022/09/14 11:34:18;;;;;;;4.63;4.23;;;21.70;99.90;;;;;;5012182;28;20447;-49
2022/09/14 11:36:48;;;;;;;55.97;37.63;;;22.00;99.90;;;;;;5012396;28;20560;-49
2022/09/14 11:39:22;;;;;;;8.80;5.20;;;21.90;99.90;;;;;;5011647;28;20928;-49
2022/09/14 11:41:53;;;;;;;5.83;3.33;;;21.70;99.90;;;;;;5012132;28;20530;-49
2022/09/14 11:44:24;;;;;;;5.90;3.00;;;22.10;99.90;;;;;;5011455;28;20479;-50
2022/09/14 11:46:56;;;;;;;3.93;2.60;;;22.00;99.90;;;;;;5012511;28;20486;-50
2022/09/14 11:49:29;;;;;;;3.83;2.87;;;22.00;99.90;;;;;;5012473;28;20451;-50
2022/09/14 11:52:00;;;;;;;7.93;4.00;;;21.80;99.90;;;;;;5012234;28;20447;-50
2022/09/14 11:54:28;;;;;;;46.60;9.73;;;22.00;99.90;;;;;;5012090;28;20474;-51
2022/09/14 11:57:00;;;;;;;19.50;4.43;;;21.90;99.90;;;;;;5011883;28;20521;-50
2022/09/14 11:59:49;;;;;;;5.67;3.37;;;21.80;99.90;;;;;;5011332;28;20451;-51
2022/09/14 12:02:46;;;;;;;3.83;3.23;;;21.70;99.90;;;;;;5012361;28;20557;-50
2022/09/14 12:05:28;;;;;;;6.13;3.13;;;22.00;99.90;;;;;;5011771;28;20420;-51
2022/09/14 12:08:00;;;;;;;5.13;3.00;;;21.80;99.90;;;;;;5010252;28;20474;-49
2022/09/14 12:10:30;;;;;;;7.40;3.20;;;22.20;99.90;;;;;;5010982;28;20432;-49
2022/09/14 12:13:17;;;;;;;5.45;4.05;;;22.30;99.90;;;;;;5011818;28;20447;-50
2022/09/14 12:15:45;;;;;;;4.28;3.55;;;22.40;99.90;;;;;;5012023;28;20265;-50
2022/09/14 12:18:24;;;;;;;5.37;2.53;;;22.40;99.90;;;;;;5011795;28;20224;-50
2022/09/14 12:21:02;;;;;;;5.97;3.07;;;22.10;99.90;;;;;;5011206;28;20449;-50
2022/09/14 12:23:52;;;;;;;6.17;3.50;;;22.10;99.90;;;;;;5011371;28;20481;-49
2022/09/14 12:26:38;;;;;;;5.83;3.17;;;22.10;99.90;;;;;;5008921;28;20500;-51
2022/09/14 12:29:31;;;;;;;4.63;3.20;;;22.30;99.90;;;;;;5010695;28;20487;-49
2022/09/14 12:32:20;;;;;;;3.70;2.90;;;22.10;99.90;;;;;;5011428;28;20466;-50
2022/09/14 12:35:26;;;;;;;7.53;2.50;;;21.90;99.90;;;;;;5011008;28;20972;-50
2022/09/14 12:37:53;;;;;;;5.07;3.10;;;22.30;99.90;;;;;;5011400;28;20459;-52
2022/09/14 12:40:36;;;;;;;4.70;3.23;;;22.10;99.90;;;;;;5011100;28;20482;-50
2022/09/14 12:43:47;;;;;;;4.93;2.97;;;22.30;99.90;;;;;;5011211;28;20479;-50
2022/09/14 12:46:38;;;;;;;12.27;10.40;;;22.00;99.90;;;;;;5011891;28;20490;-50
2022/09/14 12:49:30;;;;;;;6.47;4.22;;;22.20;99.90;;;;;;5012164;28;20721;-50
2022/09/14 12:52:03;;;;;;;6.90;3.47;;;22.00;99.90;;;;;;5012475;28;20627;-50
2022/09/14 12:54:42;;;;;;;5.43;3.70;;;22.10;99.90;;;;;;5011533;28;20473;-48
2022/09/14 12:57:29;;;;;;;5.83;4.07;;;22.00;99.90;;;;;;5011754;28;20457;-50
2022/09/14 13:00:05;;;;;;;6.33;3.13;;;22.10;99.90;;;;;;5010852;28;20443;-51
2022/09/14 13:02:59;;;;;;;4.20;3.10;;;22.10;99.90;;;;;;5011758;28;20593;-50
2022/09/14 13:05:28;;;;;;;3.63;3.33;;;22.10;99.90;;;;;;5011379;28;20450;-50
2022/09/14 13:07:56;;;;;;;3.87;3.50;;;22.20;99.90;;;;;;5010533;28;20485;-49